Dati Storici

Data ora Umidita' aria (%) Temperatura aria (°C) Rad globale (W/m²) Gonioanemometro (°) Tacoanemometro (m/s) Pioggia (mm)
05-06-2020 01:30 97.8 % 17.27 -45.325 1.2 0 0
05-06-2020 01:20 97.8 % 17.172 -66.434 1.498 0 0
05-06-2020 01:10 97.7 % 17.399 -64.816 1.425 0 0
05-06-2020 01:00 97.8 % 17.643 -61.065 1.518 0 0
05-06-2020 00:50 97.8 % 17.316 -35.799 2.874 0 0
05-06-2020 00:40 97.8 % 17.172 -53.979 1.589 0 0
05-06-2020 00:30 97.8 % 17.002 -52.553 1.92 0 0
05-06-2020 00:20 97.9 % 16.872 -61.303 0.847 0 0
05-06-2020 00:10 97.9 % 16.813 -61.971 1.769 0 0
05-06-2020 00:00 97.9 % 16.947 -62.992 2.281 0 0
04-06-2020 23:50 97.9 % 16.831 -59.137 2.308 0 0
04-06-2020 23:40 97.9 % 16.843 -57.505 1.869 0 0
04-06-2020 23:30 97.9 % 17.202 -72.08 0.882 0 0
04-06-2020 23:20 97.9 % 17.266 -45.658 5.042 0 0
04-06-2020 23:10 97.9 % 17.185 -56.214 3.872 0 0
04-06-2020 23:00 97.9 % 17.449 -56.087 1.915 0 0
04-06-2020 22:50 98 % 17.653 -66.003 1.431 0 0
04-06-2020 22:40 98 % 17.479 -56.205 1.401 0 0
04-06-2020 22:30 97.9 % 17.403 -68.822 2.012 0 0
04-06-2020 22:20 97.9 % 17.395 -66.274 2.536 0 0

I dati sono presentati in modo automatico a scopo informativo. In seguito a verifica i dati possono subire modifiche o essere invalidati e non riportati negli archivi definitivi.